sensor_id;sensor_type;location;lat;lon;timestamp;temperature;humidity
32706;DHT22;19094;50.972;3.538;2022-12-18T00:01:52;7.40;57.60
32706;DHT22;19094;50.972;3.538;2022-12-18T00:04:23;7.30;56.60
32706;DHT22;19094;50.972;3.538;2022-12-18T00:06:49;7.20;56.40
32706;DHT22;19094;50.972;3.538;2022-12-18T00:09:15;7.20;56.70
32706;DHT22;19094;50.972;3.538;2022-12-18T00:11:41;7.20;56.60
32706;DHT22;19094;50.972;3.538;2022-12-18T00:14:08;7.10;56.60
32706;DHT22;19094;50.972;3.538;2022-12-18T00:16:34;7.10;56.40
32706;DHT22;19094;50.972;3.538;2022-12-18T00:19:02;7.10;56.40
32706;DHT22;19094;50.972;3.538;2022-12-18T00:21:29;7.10;56.30
32706;DHT22;19094;50.972;3.538;2022-12-18T00:23:55;7.10;56.10
32706;DHT22;19094;50.972;3.538;2022-12-18T00:26:27;7.10;55.90
32706;DHT22;19094;50.972;3.538;2022-12-18T00:28:53;7.10;56.20
32706;DHT22;19094;50.972;3.538;2022-12-18T00:31:22;7.10;55.90
32706;DHT22;19094;50.972;3.538;2022-12-18T00:33:49;7.10;56.10
32706;DHT22;19094;50.972;3.538;2022-12-18T00:36:20;7.00;56.00
32706;DHT22;19094;50.972;3.538;2022-12-18T00:38:47;7.00;56.00
32706;DHT22;19094;50.972;3.538;2022-12-18T00:41:14;7.10;55.90
32706;DHT22;19094;50.972;3.538;2022-12-18T00:44:01;7.00;55.70
32706;DHT22;19094;50.972;3.538;2022-12-18T00:46:26;7.00;55.80
32706;DHT22;19094;50.972;3.538;2022-12-18T00:48:52;7.00;55.80
32706;DHT22;19094;50.972;3.538;2022-12-18T00:51:18;7.00;55.70
32706;DHT22;19094;50.972;3.538;2022-12-18T00:53:43;7.00;55.90
32706;DHT22;19094;50.972;3.538;2022-12-18T00:56:09;7.00;55.80
32706;DHT22;19094;50.972;3.538;2022-12-18T00:58:35;7.00;55.80
32706;DHT22;19094;50.972;3.538;2022-12-18T01:01:00;7.00;55.80
32706;DHT22;19094;50.972;3.538;2022-12-18T01:03:26;6.90;55.80
32706;DHT22;19094;50.972;3.538;2022-12-18T01:05:51;7.00;55.80
32706;DHT22;19094;50.972;3.538;2022-12-18T01:08:17;6.90;55.60
32706;DHT22;19094;50.972;3.538;2022-12-18T01:10:43;6.90;55.70
32706;DHT22;19094;50.972;3.538;2022-12-18T01:13:08;6.90;55.50
32706;DHT22;19094;50.972;3.538;2022-12-18T01:15:34;7.00;55.60
32706;DHT22;19094;50.972;3.538;2022-12-18T01:18:00;6.90;55.60
32706;DHT22;19094;50.972;3.538;2022-12-18T01:20:25;6.90;55.60
32706;DHT22;19094;50.972;3.538;2022-12-18T01:22:51;6.90;55.50
32706;DHT22;19094;50.972;3.538;2022-12-18T01:25:16;6.80;55.60
32706;DHT22;19094;50.972;3.538;2022-12-18T01:27:42;6.80;55.70
32706;DHT22;19094;50.972;3.538;2022-12-18T01:30:08;6.80;55.60
32706;DHT22;19094;50.972;3.538;2022-12-18T01:32:34;6.90;55.60
32706;DHT22;19094;50.972;3.538;2022-12-18T01:35:00;6.80;55.30
32706;DHT22;19094;50.972;3.538;2022-12-18T01:37:26;6.90;55.50
32706;DHT22;19094;50.972;3.538;2022-12-18T01:39:54;6.80;55.30
32706;DHT22;19094;50.972;3.538;2022-12-18T01:42:21;6.90;55.20
32706;DHT22;19094;50.972;3.538;2022-12-18T01:45:25;6.80;55.10
32706;DHT22;19094;50.972;3.538;2022-12-18T01:50:25;6.80;55.20
32706;DHT22;19094;50.972;3.538;2022-12-18T01:53:05;6.80;55.20
32706;DHT22;19094;50.972;3.538;2022-12-18T01:55:37;6.70;55.30
32706;DHT22;19094;50.972;3.538;2022-12-18T01:58:04;6.80;55.20
32706;DHT22;19094;50.972;3.538;2022-12-18T02:00:30;6.70;55.10
32706;DHT22;19094;50.972;3.538;2022-12-18T02:02:56;6.70;55.30
32706;DHT22;19094;50.972;3.538;2022-12-18T02:13:51;6.70;55.30
32706;DHT22;19094;50.972;3.538;2022-12-18T02:16:28;6.70;55.10
32706;DHT22;19094;50.972;3.538;2022-12-18T02:19:01;6.70;55.10
32706;DHT22;19094;50.972;3.538;2022-12-18T02:22:04;6.60;55.00
32706;DHT22;19094;50.972;3.538;2022-12-18T02:24:38;6.60;55.10
32706;DHT22;19094;50.972;3.538;2022-12-18T02:27:09;6.70;55.30
32706;DHT22;19094;50.972;3.538;2022-12-18T02:29:50;6.70;55.10
32706;DHT22;19094;50.972;3.538;2022-12-18T02:32:27;6.70;55.10
32706;DHT22;19094;50.972;3.538;2022-12-18T02:34:56;6.70;55.60
32706;DHT22;19094;50.972;3.538;2022-12-18T02:37:23;6.70;55.00
32706;DHT22;19094;50.972;3.538;2022-12-18T02:39:53;6.70;55.10
32706;DHT22;19094;50.972;3.538;2022-12-18T02:42:20;6.70;55.20
32706;DHT22;19094;50.972;3.538;2022-12-18T02:44:48;6.70;55.00
32706;DHT22;19094;50.972;3.538;2022-12-18T02:47:17;6.70;55.10
32706;DHT22;19094;50.972;3.538;2022-12-18T02:57:46;6.60;55.10
32706;DHT22;19094;50.972;3.538;2022-12-18T03:00:21;6.60;55.10
32706;DHT22;19094;50.972;3.538;2022-12-18T03:05:27;6.60;55.00
32706;DHT22;19094;50.972;3.538;2022-12-18T03:08:03;6.60;55.10
32706;DHT22;19094;50.972;3.538;2022-12-18T03:10:32;6.60;54.80
32706;DHT22;19094;50.972;3.538;2022-12-18T03:13:05;6.60;55.00
32706;DHT22;19094;50.972;3.538;2022-12-18T03:15:42;6.60;55.00
32706;DHT22;19094;50.972;3.538;2022-12-18T03:18:35;6.60;54.90
32706;DHT22;19094;50.972;3.538;2022-12-18T03:21:05;6.60;55.00
32706;DHT22;19094;50.972;3.538;2022-12-18T03:23:35;6.60;55.00
32706;DHT22;19094;50.972;3.538;2022-12-18T03:26:05;6.60;54.80
32706;DHT22;19094;50.972;3.538;2022-12-18T03:28:35;6.50;54.90
32706;DHT22;19094;50.972;3.538;2022-12-18T03:31:05;6.50;55.00
32706;DHT22;19094;50.972;3.538;2022-12-18T03:33:43;6.50;55.10
32706;DHT22;19094;50.972;3.538;2022-12-18T03:36:11;6.50;54.80
32706;DHT22;19094;50.972;3.538;2022-12-18T03:38:38;6.50;54.90
32706;DHT22;19094;50.972;3.538;2022-12-18T03:46:30;6.40;54.90
32706;DHT22;19094;50.972;3.538;2022-12-18T03:49:11;6.40;54.80
32706;DHT22;19094;50.972;3.538;2022-12-18T03:51:48;6.50;55.10
32706;DHT22;19094;50.972;3.538;2022-12-18T03:54:16;6.40;54.90
32706;DHT22;19094;50.972;3.538;2022-12-18T03:56:48;6.50;55.00
32706;DHT22;19094;50.972;3.538;2022-12-18T03:59:16;6.50;54.50
32706;DHT22;19094;50.972;3.538;2022-12-18T04:01:52;6.50;54.90
32706;DHT22;19094;50.972;3.538;2022-12-18T04:04:20;6.40;55.00
32706;DHT22;19094;50.972;3.538;2022-12-18T04:06:47;6.40;55.30
32706;DHT22;19094;50.972;3.538;2022-12-18T04:09:15;6.40;55.30
32706;DHT22;19094;50.972;3.538;2022-12-18T04:11:42;6.40;55.00
32706;DHT22;19094;50.972;3.538;2022-12-18T04:14:10;6.30;55.20
32706;DHT22;19094;50.972;3.538;2022-12-18T04:16:36;6.30;55.30
32706;DHT22;19094;50.972;3.538;2022-12-18T04:19:05;6.40;55.30
32706;DHT22;19094;50.972;3.538;2022-12-18T04:21:30;6.40;55.10
32706;DHT22;19094;50.972;3.538;2022-12-18T04:23:56;6.40;55.10
32706;DHT22;19094;50.972;3.538;2022-12-18T04:26:22;6.50;55.00
32706;DHT22;19094;50.972;3.538;2022-12-18T04:28:47;6.50;55.10
32706;DHT22;19094;50.972;3.538;2022-12-18T04:31:16;6.50;55.00
32706;DHT22;19094;50.972;3.538;2022-12-18T04:33:41;6.50;55.20
32706;DHT22;19094;50.972;3.538;2022-12-18T04:36:07;6.40;54.90
32706;DHT22;19094;50.972;3.538;2022-12-18T04:38:33;6.40;55.10
32706;DHT22;19094;50.972;3.538;2022-12-18T04:40:59;6.40;54.90
32706;DHT22;19094;50.972;3.538;2022-12-18T04:43:24;6.40;55.10
32706;DHT22;19094;50.972;3.538;2022-12-18T04:45:50;6.40;54.90
32706;DHT22;19094;50.972;3.538;2022-12-18T04:48:16;6.40;55.10
32706;DHT22;19094;50.972;3.538;2022-12-18T04:50:41;6.40;55.00
32706;DHT22;19094;50.972;3.538;2022-12-18T04:53:07;6.40;54.80
32706;DHT22;19094;50.972;3.538;2022-12-18T04:55:33;6.40;54.90
32706;DHT22;19094;50.972;3.538;2022-12-18T04:57:58;6.40;55.00
32706;DHT22;19094;50.972;3.538;2022-12-18T05:00:24;6.50;55.00
32706;DHT22;19094;50.972;3.538;2022-12-18T05:02:50;6.50;54.90
32706;DHT22;19094;50.972;3.538;2022-12-18T05:05:15;6.40;54.60
32706;DHT22;19094;50.972;3.538;2022-12-18T05:07:41;6.30;54.60
32706;DHT22;19094;50.972;3.538;2022-12-18T05:10:07;6.30;54.70
32706;DHT22;19094;50.972;3.538;2022-12-18T05:12:33;6.20;54.60
32706;DHT22;19094;50.972;3.538;2022-12-18T05:14:58;6.30;55.30
32706;DHT22;19094;50.972;3.538;2022-12-18T05:17:24;6.20;54.90
32706;DHT22;19094;50.972;3.538;2022-12-18T05:19:50;6.40;55.10
32706;DHT22;19094;50.972;3.538;2022-12-18T05:22:15;6.40;54.90
32706;DHT22;19094;50.972;3.538;2022-12-18T05:24:41;6.30;54.80
32706;DHT22;19094;50.972;3.538;2022-12-18T05:27:07;6.30;54.90
32706;DHT22;19094;50.972;3.538;2022-12-18T05:29:32;6.40;54.60
32706;DHT22;19094;50.972;3.538;2022-12-18T05:31:58;6.40;54.60
32706;DHT22;19094;50.972;3.538;2022-12-18T05:34:23;6.30;54.40
32706;DHT22;19094;50.972;3.538;2022-12-18T05:36:49;6.30;54.90
32706;DHT22;19094;50.972;3.538;2022-12-18T05:39:15;6.30;54.70
32706;DHT22;19094;50.972;3.538;2022-12-18T05:41:40;6.30;54.70
32706;DHT22;19094;50.972;3.538;2022-12-18T05:44:06;6.30;54.50
32706;DHT22;19094;50.972;3.538;2022-12-18T05:46:32;6.30;54.50
32706;DHT22;19094;50.972;3.538;2022-12-18T05:49:00;6.30;54.70
32706;DHT22;19094;50.972;3.538;2022-12-18T05:51:29;6.30;54.60
32706;DHT22;19094;50.972;3.538;2022-12-18T05:53:54;6.30;54.60
32706;DHT22;19094;50.972;3.538;2022-12-18T05:56:21;6.20;54.40
32706;DHT22;19094;50.972;3.538;2022-12-18T05:58:51;6.30;54.70
32706;DHT22;19094;50.972;3.538;2022-12-18T06:01:20;6.30;54.60
32706;DHT22;19094;50.972;3.538;2022-12-18T06:03:46;6.20;54.50
32706;DHT22;19094;50.972;3.538;2022-12-18T06:06:20;6.20;54.50
32706;DHT22;19094;50.972;3.538;2022-12-18T06:08:48;6.20;54.70
32706;DHT22;19094;50.972;3.538;2022-12-18T06:11:19;6.20;54.80
32706;DHT22;19094;50.972;3.538;2022-12-18T06:13:45;6.20;54.60
32706;DHT22;19094;50.972;3.538;2022-12-18T06:16:11;6.20;54.50
32706;DHT22;19094;50.972;3.538;2022-12-18T06:18:37;6.20;54.60
32706;DHT22;19094;50.972;3.538;2022-12-18T06:21:03;6.10;54.60
32706;DHT22;19094;50.972;3.538;2022-12-18T06:23:28;6.10;54.70
32706;DHT22;19094;50.972;3.538;2022-12-18T06:25:54;6.00;54.70
32706;DHT22;19094;50.972;3.538;2022-12-18T06:28:20;6.10;54.70
32706;DHT22;19094;50.972;3.538;2022-12-18T06:30:47;6.20;54.70
32706;DHT22;19094;50.972;3.538;2022-12-18T06:33:13;6.20;54.60
32706;DHT22;19094;50.972;3.538;2022-12-18T06:35:39;6.20;54.60
32706;DHT22;19094;50.972;3.538;2022-12-18T06:38:05;6.20;54.60
32706;DHT22;19094;50.972;3.538;2022-12-18T06:40:31;6.20;54.50
32706;DHT22;19094;50.972;3.538;2022-12-18T06:42:57;6.20;54.60
32706;DHT22;19094;50.972;3.538;2022-12-18T06:45:22;6.30;54.50
32706;DHT22;19094;50.972;3.538;2022-12-18T06:47:48;6.30;54.60
32706;DHT22;19094;50.972;3.538;2022-12-18T06:50:14;6.30;54.60
32706;DHT22;19094;50.972;3.538;2022-12-18T06:52:40;6.30;54.40
32706;DHT22;19094;50.972;3.538;2022-12-18T06:55:09;6.20;54.40
32706;DHT22;19094;50.972;3.538;2022-12-18T06:57:35;6.20;54.50
32706;DHT22;19094;50.972;3.538;2022-12-18T07:00:01;6.20;54.60
32706;DHT22;19094;50.972;3.538;2022-12-18T07:02:26;6.10;54.40
32706;DHT22;19094;50.972;3.538;2022-12-18T07:04:52;6.20;54.80
32706;DHT22;19094;50.972;3.538;2022-12-18T07:07:17;6.20;54.60
32706;DHT22;19094;50.972;3.538;2022-12-18T07:09:43;6.20;54.60
32706;DHT22;19094;50.972;3.538;2022-12-18T07:12:09;6.20;54.50
32706;DHT22;19094;50.972;3.538;2022-12-18T07:14:35;6.20;54.50
32706;DHT22;19094;50.972;3.538;2022-12-18T07:17:00;6.20;54.60
32706;DHT22;19094;50.972;3.538;2022-12-18T07:19:26;6.20;54.40
32706;DHT22;19094;50.972;3.538;2022-12-18T07:21:51;6.20;54.30
32706;DHT22;19094;50.972;3.538;2022-12-18T07:24:17;6.20;54.60
32706;DHT22;19094;50.972;3.538;2022-12-18T07:26:46;6.10;54.40
32706;DHT22;19094;50.972;3.538;2022-12-18T07:29:11;6.20;54.50
32706;DHT22;19094;50.972;3.538;2022-12-18T07:31:37;6.20;54.50
32706;DHT22;19094;50.972;3.538;2022-12-18T07:34:03;6.20;54.60
32706;DHT22;19094;50.972;3.538;2022-12-18T07:36:28;6.20;54.60
32706;DHT22;19094;50.972;3.538;2022-12-18T07:38:54;6.10;54.30
32706;DHT22;19094;50.972;3.538;2022-12-18T07:41:20;6.20;54.50
32706;DHT22;19094;50.972;3.538;2022-12-18T07:43:46;6.30;54.50
32706;DHT22;19094;50.972;3.538;2022-12-18T07:46:13;6.30;54.30
32706;DHT22;19094;50.972;3.538;2022-12-18T07:48:40;6.20;54.30
32706;DHT22;19094;50.972;3.538;2022-12-18T07:51:06;6.30;54.40
32706;DHT22;19094;50.972;3.538;2022-12-18T07:53:33;6.30;54.20
32706;DHT22;19094;50.972;3.538;2022-12-18T07:56:02;6.30;54.30
32706;DHT22;19094;50.972;3.538;2022-12-18T07:58:28;6.30;54.20
32706;DHT22;19094;50.972;3.538;2022-12-18T08:00:54;6.30;54.30
32706;DHT22;19094;50.972;3.538;2022-12-18T08:03:20;6.40;54.20
32706;DHT22;19094;50.972;3.538;2022-12-18T08:05:45;6.40;54.10
32706;DHT22;19094;50.972;3.538;2022-12-18T08:08:11;6.40;54.20
32706;DHT22;19094;50.972;3.538;2022-12-18T08:10:37;6.40;54.10
32706;DHT22;19094;50.972;3.538;2022-12-18T08:13:03;6.50;54.10
32706;DHT22;19094;50.972;3.538;2022-12-18T08:15:28;6.30;53.90
32706;DHT22;19094;50.972;3.538;2022-12-18T08:17:56;6.70;54.50
32706;DHT22;19094;50.972;3.538;2022-12-18T08:20:22;6.60;52.90
32706;DHT22;19094;50.972;3.538;2022-12-18T08:22:48;6.40;53.50
32706;DHT22;19094;50.972;3.538;2022-12-18T08:25:17;6.30;53.50
32706;DHT22;19094;50.972;3.538;2022-12-18T08:27:42;6.20;53.80
32706;DHT22;19094;50.972;3.538;2022-12-18T08:30:09;6.20;53.90
32706;DHT22;19094;50.972;3.538;2022-12-18T08:32:35;6.20;54.20
32706;DHT22;19094;50.972;3.538;2022-12-18T08:35:00;6.30;54.50
32706;DHT22;19094;50.972;3.538;2022-12-18T08:37:26;6.30;54.20
32706;DHT22;19094;50.972;3.538;2022-12-18T08:39:51;7.10;56.80
32706;DHT22;19094;50.972;3.538;2022-12-18T08:42:17;6.60;54.70
32706;DHT22;19094;50.972;3.538;2022-12-18T08:45:02;6.30;54.70
32706;DHT22;19094;50.972;3.538;2022-12-18T08:47:28;6.20;53.20
32706;DHT22;19094;50.972;3.538;2022-12-18T08:49:54;6.30;53.40
32706;DHT22;19094;50.972;3.538;2022-12-18T08:52:20;6.20;53.60
32706;DHT22;19094;50.972;3.538;2022-12-18T08:54:45;6.10;53.70
32706;DHT22;19094;50.972;3.538;2022-12-18T08:57:11;6.20;53.80
32706;DHT22;19094;50.972;3.538;2022-12-18T08:59:37;6.20;53.60
32706;DHT22;19094;50.972;3.538;2022-12-18T09:02:02;6.20;53.80
32706;DHT22;19094;50.972;3.538;2022-12-18T09:04:28;6.10;54.00
32706;DHT22;19094;50.972;3.538;2022-12-18T09:06:55;6.10;54.20
32706;DHT22;19094;50.972;3.538;2022-12-18T09:09:20;6.20;54.10
32706;DHT22;19094;50.972;3.538;2022-12-18T09:11:46;6.20;54.10
32706;DHT22;19094;50.972;3.538;2022-12-18T09:14:12;6.20;54.20
32706;DHT22;19094;50.972;3.538;2022-12-18T09:16:38;6.30;54.00
32706;DHT22;19094;50.972;3.538;2022-12-18T09:19:04;6.30;54.10
32706;DHT22;19094;50.972;3.538;2022-12-18T09:21:32;6.30;54.20
32706;DHT22;19094;50.972;3.538;2022-12-18T09:23:59;6.30;54.10
32706;DHT22;19094;50.972;3.538;2022-12-18T09:26:26;6.20;54.20
32706;DHT22;19094;50.972;3.538;2022-12-18T09:28:51;6.30;54.30
32706;DHT22;19094;50.972;3.538;2022-12-18T09:31:19;6.30;54.30
32706;DHT22;19094;50.972;3.538;2022-12-18T09:33:45;6.30;54.40
32706;DHT22;19094;50.972;3.538;2022-12-18T09:36:14;6.30;54.40
32706;DHT22;19094;50.972;3.538;2022-12-18T09:38:40;6.30;54.50
32706;DHT22;19094;50.972;3.538;2022-12-18T09:41:13;6.30;54.60
32706;DHT22;19094;50.972;3.538;2022-12-18T09:43:47;6.30;54.50
32706;DHT22;19094;50.972;3.538;2022-12-18T09:46:42;6.40;54.30
32706;DHT22;19094;50.972;3.538;2022-12-18T09:49:16;6.40;54.40
32706;DHT22;19094;50.972;3.538;2022-12-18T09:52:23;6.40;54.60
32706;DHT22;19094;50.972;3.538;2022-12-18T09:54:59;6.40;54.40
32706;DHT22;19094;50.972;3.538;2022-12-18T09:57:25;6.50;54.60
32706;DHT22;19094;50.972;3.538;2022-12-18T10:00:23;6.60;54.40
32706;DHT22;19094;50.972;3.538;2022-12-18T10:02:51;6.60;54.20
32706;DHT22;19094;50.972;3.538;2022-12-18T10:05:49;6.60;54.00
32706;DHT22;19094;50.972;3.538;2022-12-18T10:13:58;6.70;54.00
32706;DHT22;19094;50.972;3.538;2022-12-18T10:19:10;6.70;54.20
32706;DHT22;19094;50.972;3.538;2022-12-18T10:21:57;6.70;54.30
32706;DHT22;19094;50.972;3.538;2022-12-18T10:27:18;6.70;54.20
32706;DHT22;19094;50.972;3.538;2022-12-18T10:29:46;6.70;54.30
32706;DHT22;19094;50.972;3.538;2022-12-18T10:32:22;6.70;54.40
32706;DHT22;19094;50.972;3.538;2022-12-18T10:34:50;6.70;54.50
32706;DHT22;19094;50.972;3.538;2022-12-18T10:37:21;6.70;54.50
32706;DHT22;19094;50.972;3.538;2022-12-18T10:40:11;6.70;54.40
32706;DHT22;19094;50.972;3.538;2022-12-18T10:42:37;6.70;54.30
32706;DHT22;19094;50.972;3.538;2022-12-18T10:45:12;6.70;54.40
32706;DHT22;19094;50.972;3.538;2022-12-18T10:47:49;6.70;54.40
32706;DHT22;19094;50.972;3.538;2022-12-18T10:50:35;6.70;54.20
32706;DHT22;19094;50.972;3.538;2022-12-18T10:53:04;6.80;54.30
32706;DHT22;19094;50.972;3.538;2022-12-18T10:55:33;6.70;54.20
32706;DHT22;19094;50.972;3.538;2022-12-18T10:58:30;6.80;54.20
32706;DHT22;19094;50.972;3.538;2022-12-18T11:01:13;6.70;54.70
32706;DHT22;19094;50.972;3.538;2022-12-18T11:04:00;6.70;54.30
32706;DHT22;19094;50.972;3.538;2022-12-18T11:06:25;6.70;54.40
32706;DHT22;19094;50.972;3.538;2022-12-18T11:09:19;6.80;54.40
32706;DHT22;19094;50.972;3.538;2022-12-18T11:11:56;6.70;54.30
32706;DHT22;19094;50.972;3.538;2022-12-18T11:14:27;6.70;54.40
32706;DHT22;19094;50.972;3.538;2022-12-18T11:16:57;6.80;54.40
32706;DHT22;19094;50.972;3.538;2022-12-18T11:21:57;6.80;54.40
32706;DHT22;19094;50.972;3.538;2022-12-18T11:24:36;6.70;54.40
32706;DHT22;19094;50.972;3.538;2022-12-18T11:27:04;6.70;54.30
32706;DHT22;19094;50.972;3.538;2022-12-18T11:29:37;6.70;54.40
32706;DHT22;19094;50.972;3.538;2022-12-18T11:32:35;6.70;54.40
32706;DHT22;19094;50.972;3.538;2022-12-18T11:35:36;6.80;54.30
32706;DHT22;19094;50.972;3.538;2022-12-18T11:38:22;6.70;54.30
32706;DHT22;19094;50.972;3.538;2022-12-18T11:44:11;6.70;54.30
32706;DHT22;19094;50.972;3.538;2022-12-18T11:46:49;6.70;54.40
32706;DHT22;19094;50.972;3.538;2022-12-18T11:49:26;6.70;54.40
32706;DHT22;19094;50.972;3.538;2022-12-18T11:52:03;6.80;54.40
32706;DHT22;19094;50.972;3.538;2022-12-18T11:54:30;6.80;54.30
32706;DHT22;19094;50.972;3.538;2022-12-18T11:57:31;6.80;54.50
32706;DHT22;19094;50.972;3.538;2022-12-18T12:00:07;6.80;54.40
32706;DHT22;19094;50.972;3.538;2022-12-18T12:10:41;6.80;54.30
32706;DHT22;19094;50.972;3.538;2022-12-18T12:22:02;6.80;54.30
32706;DHT22;19094;50.972;3.538;2022-12-18T12:24:58;6.80;54.30
32706;DHT22;19094;50.972;3.538;2022-12-18T12:35:43;6.80;54.10
32706;DHT22;19094;50.972;3.538;2022-12-18T12:41:06;6.80;54.20
32706;DHT22;19094;50.972;3.538;2022-12-18T12:43:56;6.90;54.10
32706;DHT22;19094;50.972;3.538;2022-12-18T12:46:24;6.90;54.40
32706;DHT22;19094;50.972;3.538;2022-12-18T12:49:02;6.90;54.30
32706;DHT22;19094;50.972;3.538;2022-12-18T12:51:34;6.90;54.10
32706;DHT22;19094;50.972;3.538;2022-12-18T12:54:04;6.80;54.20
32706;DHT22;19094;50.972;3.538;2022-12-18T12:56:45;6.90;54.20
32706;DHT22;19094;50.972;3.538;2022-12-18T13:01:57;6.80;54.30
32706;DHT22;19094;50.972;3.538;2022-12-18T13:13:12;6.80;54.10
32706;DHT22;19094;50.972;3.538;2022-12-18T13:16:03;6.80;54.30
32706;DHT22;19094;50.972;3.538;2022-12-18T13:18:33;6.80;53.90
32706;DHT22;19094;50.972;3.538;2022-12-18T13:23:31;6.80;54.30
32706;DHT22;19094;50.972;3.538;2022-12-18T13:34:24;6.80;54.40
32706;DHT22;19094;50.972;3.538;2022-12-18T13:36:53;6.90;54.20
32706;DHT22;19094;50.972;3.538;2022-12-18T13:41:50;6.80;54.40
32706;DHT22;19094;50.972;3.538;2022-12-18T13:47:02;6.90;54.30
32706;DHT22;19094;50.972;3.538;2022-12-18T13:52:00;6.90;54.40
32706;DHT22;19094;50.972;3.538;2022-12-18T13:54:39;6.80;54.20
32706;DHT22;19094;50.972;3.538;2022-12-18T13:57:24;6.80;54.40
32706;DHT22;19094;50.972;3.538;2022-12-18T13:59:50;6.80;54.40
32706;DHT22;19094;50.972;3.538;2022-12-18T14:02:21;6.90;54.30
32706;DHT22;19094;50.972;3.538;2022-12-18T14:04:47;6.80;54.40
32706;DHT22;19094;50.972;3.538;2022-12-18T14:07:28;6.80;54.50
32706;DHT22;19094;50.972;3.538;2022-12-18T14:09:56;6.90;54.60
32706;DHT22;19094;50.972;3.538;2022-12-18T14:12:31;6.90;54.40
32706;DHT22;19094;50.972;3.538;2022-12-18T14:15:34;6.80;54.40
32706;DHT22;19094;50.972;3.538;2022-12-18T14:20:59;6.80;54.50
32706;DHT22;19094;50.972;3.538;2022-12-18T14:23:35;6.80;54.50
32706;DHT22;19094;50.972;3.538;2022-12-18T14:26:25;6.90;54.50
32706;DHT22;19094;50.972;3.538;2022-12-18T14:28:49;6.90;54.40
32706;DHT22;19094;50.972;3.538;2022-12-18T14:31:24;6.90;54.50
32706;DHT22;19094;50.972;3.538;2022-12-18T14:33:49;6.90;54.50
32706;DHT22;19094;50.972;3.538;2022-12-18T14:36:18;6.90;54.50
32706;DHT22;19094;50.972;3.538;2022-12-18T14:38:52;6.80;54.60
32706;DHT22;19094;50.972;3.538;2022-12-18T14:41:19;6.80;54.60
32706;DHT22;19094;50.972;3.538;2022-12-18T14:43:48;6.90;54.60
32706;DHT22;19094;50.972;3.538;2022-12-18T14:48:55;6.90;54.60
32706;DHT22;19094;50.972;3.538;2022-12-18T14:51:25;6.90;54.60
32706;DHT22;19094;50.972;3.538;2022-12-18T14:53:59;6.90;54.60
32706;DHT22;19094;50.972;3.538;2022-12-18T14:56:36;6.90;54.50
32706;DHT22;19094;50.972;3.538;2022-12-18T14:59:17;6.90;54.50
32706;DHT22;19094;50.972;3.538;2022-12-18T15:04:33;6.90;54.50
32706;DHT22;19094;50.972;3.538;2022-12-18T15:07:13;7.00;54.40
32706;DHT22;19094;50.972;3.538;2022-12-18T15:09:41;6.90;54.40
32706;DHT22;19094;50.972;3.538;2022-12-18T15:12:25;6.90;54.60
32706;DHT22;19094;50.972;3.538;2022-12-18T15:14:51;7.00;54.50
32706;DHT22;19094;50.972;3.538;2022-12-18T15:17:21;7.00;55.00
32706;DHT22;19094;50.972;3.538;2022-12-18T15:19:49;7.00;54.40
32706;DHT22;19094;50.972;3.538;2022-12-18T15:22:24;7.00;54.40
32706;DHT22;19094;50.972;3.538;2022-12-18T15:24:50;7.00;54.30
32706;DHT22;19094;50.972;3.538;2022-12-18T15:27:35;6.90;54.20
32706;DHT22;19094;50.972;3.538;2022-12-18T15:32:36;7.00;54.50
32706;DHT22;19094;50.972;3.538;2022-12-18T15:35:23;7.00;54.50
32706;DHT22;19094;50.972;3.538;2022-12-18T15:37:51;7.00;54.40
32706;DHT22;19094;50.972;3.538;2022-12-18T15:40:22;7.00;54.40
32706;DHT22;19094;50.972;3.538;2022-12-18T15:42:50;7.00;54.50
32706;DHT22;19094;50.972;3.538;2022-12-18T15:45:36;7.00;54.50
32706;DHT22;19094;50.972;3.538;2022-12-18T15:48:04;7.00;54.40
32706;DHT22;19094;50.972;3.538;2022-12-18T15:50:30;7.00;54.50
32706;DHT22;19094;50.972;3.538;2022-12-18T15:52:55;7.00;54.40
32706;DHT22;19094;50.972;3.538;2022-12-18T15:55:23;7.00;54.40
32706;DHT22;19094;50.972;3.538;2022-12-18T15:58:09;7.10;54.30
32706;DHT22;19094;50.972;3.538;2022-12-18T16:00:37;7.10;54.30
32706;DHT22;19094;50.972;3.538;2022-12-18T16:03:04;7.10;54.20
32706;DHT22;19094;50.972;3.538;2022-12-18T16:05:31;7.10;54.30
32706;DHT22;19094;50.972;3.538;2022-12-18T16:07:57;7.10;54.60
32706;DHT22;19094;50.972;3.538;2022-12-18T16:10:24;7.10;54.40
32706;DHT22;19094;50.972;3.538;2022-12-18T16:12:50;7.10;54.40
32706;DHT22;19094;50.972;3.538;2022-12-18T16:15:16;7.10;54.50
32706;DHT22;19094;50.972;3.538;2022-12-18T16:17:43;7.20;55.00
32706;DHT22;19094;50.972;3.538;2022-12-18T16:20:13;7.30;54.70
32706;DHT22;19094;50.972;3.538;2022-12-18T16:22:41;7.30;55.30
32706;DHT22;19094;50.972;3.538;2022-12-18T16:27:40;7.30;55.30
32706;DHT22;19094;50.972;3.538;2022-12-18T16:30:08;7.20;55.00
32706;DHT22;19094;50.972;3.538;2022-12-18T16:32:37;7.20;55.60
32706;DHT22;19094;50.972;3.538;2022-12-18T16:35:03;7.30;55.30
32706;DHT22;19094;50.972;3.538;2022-12-18T16:37:28;7.30;55.10
32706;DHT22;19094;50.972;3.538;2022-12-18T16:39:54;7.50;58.40
32706;DHT22;19094;50.972;3.538;2022-12-18T16:42:20;7.50;56.90
32706;DHT22;19094;50.972;3.538;2022-12-18T16:44:47;7.50;56.70
32706;DHT22;19094;50.972;3.538;2022-12-18T16:47:13;7.60;57.90
32706;DHT22;19094;50.972;3.538;2022-12-18T16:49:39;7.60;57.10
32706;DHT22;19094;50.972;3.538;2022-12-18T16:52:05;7.50;56.60
32706;DHT22;19094;50.972;3.538;2022-12-18T16:54:31;7.40;56.50
32706;DHT22;19094;50.972;3.538;2022-12-18T16:56:59;7.40;56.40
32706;DHT22;19094;50.972;3.538;2022-12-18T16:59:25;7.40;56.70
32706;DHT22;19094;50.972;3.538;2022-12-18T17:01:52;7.40;56.60
32706;DHT22;19094;50.972;3.538;2022-12-18T17:04:17;7.50;57.70
32706;DHT22;19094;50.972;3.538;2022-12-18T17:06:44;7.50;57.00
32706;DHT22;19094;50.972;3.538;2022-12-18T17:09:12;7.50;56.40
32706;DHT22;19094;50.972;3.538;2022-12-18T17:11:41;7.40;56.60
32706;DHT22;19094;50.972;3.538;2022-12-18T17:14:10;7.50;56.50
32706;DHT22;19094;50.972;3.538;2022-12-18T17:16:36;7.50;57.20
32706;DHT22;19094;50.972;3.538;2022-12-18T17:19:02;7.40;57.00
32706;DHT22;19094;50.972;3.538;2022-12-18T17:21:28;7.40;57.70
32706;DHT22;19094;50.972;3.538;2022-12-18T17:23:54;7.40;57.60
32706;DHT22;19094;50.972;3.538;2022-12-18T17:26:19;7.40;57.30
32706;DHT22;19094;50.972;3.538;2022-12-18T17:28:45;7.30;57.30
32706;DHT22;19094;50.972;3.538;2022-12-18T17:31:20;7.30;57.40
32706;DHT22;19094;50.972;3.538;2022-12-18T17:33:46;7.30;57.30
32706;DHT22;19094;50.972;3.538;2022-12-18T17:36:13;7.30;57.60
32706;DHT22;19094;50.972;3.538;2022-12-18T17:38:39;7.40;57.90
32706;DHT22;19094;50.972;3.538;2022-12-18T17:41:06;7.40;57.40
32706;DHT22;19094;50.972;3.538;2022-12-18T17:43:34;7.30;57.60
32706;DHT22;19094;50.972;3.538;2022-12-18T17:46:04;7.30;57.70
32706;DHT22;19094;50.972;3.538;2022-12-18T17:48:31;7.30;57.60
32706;DHT22;19094;50.972;3.538;2022-12-18T17:51:04;7.30;57.60
32706;DHT22;19094;50.972;3.538;2022-12-18T17:53:30;7.30;57.70
32706;DHT22;19094;50.972;3.538;2022-12-18T17:55:58;7.30;57.80
32706;DHT22;19094;50.972;3.538;2022-12-18T17:58:26;7.20;57.70